Portada
METAR-TAF:

METAR-TAF

Aeroports :

Jubail, Aràbia Saudita

latitud: 27-02-20N, longitud: 49-24-18E, altitud: 8 m

Observació

L'informe es va fer fa 30 minuts, a les 11:00 UTC
Vent 4 kt del Sud
Temperatura 20°C
Humitat 100%
Pressió 1014 hPa
Visibilitat: 2000 m
Escasses núvols a una alçada de 2500 ft, Cumulonimbus.
Cel ennuvolat a una alçada de 3000 ft
Cel cobert a una alçada de 4000 ft
pluja

METAR: OEJB 161100Z 19004KT 2000 RA FEW025CB BKN030 OVC040 20/20 Q1014

Hora: 14:30 (11:30 UTC)


TAF: manca

Observacions i pronòstics meteorològics de més de 4000 aeroports (METAR i TAF).

Les estacions disponibles són els punts grocs i vermells al mapa.

Posi el ratolí al punt desitjat per veure el nom de l'estació.

Feu clic per veure les observacions i els pronòstics meteorològics.

Per canviar el mapa: feu clic els botons verds amb una creu de color negre per apropar; al botó verd amb un guió per allunyar la imatge; o en les fletxes verdes per a mapes adjacents.


METAR-TAF: